Time,TemperatureF,DewpointF,PressureIn,WindDirection,WindDirectionDegrees,WindSpeedMPH,WindSpeedGustMPH,Humidity,HourlyPrecipIn,Conditions,Clouds,dailyrainin,SoftwareType,DateUTC
2013-02-16 00:00:00,14.7,8.6,29.34,North,0,3.0,0.0,76,0.00,,,0.00,meteohub,2013-02-16 05:00:00,
2013-02-16 00:05:00,14.7,8.6,29.34,North,0,2.0,4.0,76,0.00,,,0.00,meteohub,2013-02-16 05:05:00,
2013-02-16 00:10:00,14.7,8.6,29.34,North,0,2.0,4.0,76,0.00,,,0.00,meteohub,2013-02-16 05:10:00,
2013-02-16 00:15:00,14.7,8.6,29.34,North,0,2.0,4.0,76,0.00,,,0.00,meteohub,2013-02-16 05:15:00,
2013-02-16 00:20:00,14.7,8.6,29.34,North,0,0.0,3.0,76,0.00,,,0.00,meteohub,2013-02-16 05:20:00,
2013-02-16 00:23:00,14.7,8.6,29.34,North,0,0.0,3.0,76,0.00,,,0.00,meteohub,2013-02-16 05:23:00,
2013-02-16 00:28:00,14.7,8.6,29.34,North,0,0.0,2.0,76,0.00,,,0.00,meteohub,2013-02-16 05:28:00,
2013-02-16 00:33:00,14.5,8.4,29.32,North,0,0.0,2.0,76,0.00,,,0.00,meteohub,2013-02-16 05:33:00,
2013-02-16 00:38:00,14.5,8.4,29.32,North,0,2.0,2.0,76,0.00,,,0.00,meteohub,2013-02-16 05:38:00,
2013-02-16 00:43:00,14.7,8.6,29.32,North,0,0.0,2.0,76,0.00,,,0.00,meteohub,2013-02-16 05:43:00,
2013-02-16 00:48:00,14.7,8.6,29.32,North,0,0.0,2.0,76,0.00,,,0.00,meteohub,2013-02-16 05:48:00,
2013-02-16 00:53:00,14.7,8.6,29.33,North,0,0.0,2.0,76,0.00,,,0.00,meteohub,2013-02-16 05:53:00,
2013-02-16 00:58:00,14.7,8.6,29.33,North,0,0.0,3.0,76,0.00,,,0.00,meteohub,2013-02-16 05:58:00,
2013-02-16 01:03:00,14.7,8.6,29.33,North,0,0.0,3.0,76,0.00,,,0.00,meteohub,2013-02-16 06:03:00,
2013-02-16 01:08:00,14.7,8.8,29.33,North,0,0.0,3.0,77,0.00,,,0.00,meteohub,2013-02-16 06:08:00,
2013-02-16 01:13:00,14.7,8.8,29.33,North,0,1.0,0.0,77,0.00,,,0.00,meteohub,2013-02-16 06:13:00,
2013-02-16 01:18:00,14.7,8.8,29.33,North,0,2.0,2.0,77,0.00,,,0.00,meteohub,2013-02-16 06:18:00,
2013-02-16 01:23:00,14.5,9.0,29.33,North,0,0.0,2.0,78,0.00,,,0.00,meteohub,2013-02-16 06:23:00,
2013-02-16 01:28:00,14.5,9.0,29.33,North,0,0.0,2.0,78,0.00,,,0.00,meteohub,2013-02-16 06:28:00,
2013-02-16 01:33:00,14.4,8.8,29.34,North,0,0.0,2.0,78,0.00,,,0.00,meteohub,2013-02-16 06:33:00,
2013-02-16 01:38:00,14.4,8.8,29.34,North,0,0.0,0.0,78,0.00,,,0.00,meteohub,2013-02-16 06:38:00,
2013-02-16 01:43:00,14.5,9.0,29.34,North,0,2.0,0.0,78,0.00,,,0.00,meteohub,2013-02-16 06:43:00,
2013-02-16 01:48:00,14.4,8.8,29.34,North,0,0.0,2.0,78,0.00,,,0.00,meteohub,2013-02-16 06:48:00,
2013-02-16 01:53:00,14.4,8.8,29.32,North,0,0.0,2.0,78,0.00,,,0.00,meteohub,2013-02-16 06:53:00,
2013-02-16 01:58:00,14.4,8.8,29.32,North,0,0.0,2.0,78,0.00,,,0.00,meteohub,2013-02-16 06:58:00,
2013-02-16 02:03:00,14.4,8.8,29.32,North,0,1.0,2.0,78,0.00,,,0.00,meteohub,2013-02-16 07:03:00,
2013-02-16 02:08:00,14.4,8.8,29.32,North,0,0.0,2.0,78,0.00,,,0.00,meteohub,2013-02-16 07:08:00,
2013-02-16 02:13:00,14.4,8.8,29.33,North,0,0.0,2.0,78,0.00,,,0.00,meteohub,2013-02-16 07:13:00,
2013-02-16 02:18:00,14.4,8.8,29.33,North,0,0.0,2.0,78,0.00,,,0.00,meteohub,2013-02-16 07:18:00,
2013-02-16 02:23:00,14.4,8.8,29.33,North,0,0.0,2.0,78,0.00,,,0.00,meteohub,2013-02-16 07:23:00,
2013-02-16 02:28:00,14.2,8.6,29.33,North,0,0.0,0.0,78,0.00,,,0.00,meteohub,2013-02-16 07:28:00,
2013-02-16 02:33:00,14.2,8.6,29.32,North,0,0.0,0.0,78,0.00,,,0.00,meteohub,2013-02-16 07:33:00,
2013-02-16 02:38:00,14.0,8.8,29.32,North,0,0.0,0.0,79,0.00,,,0.00,meteohub,2013-02-16 07:38:00,
2013-02-16 02:43:00,14.0,8.8,29.32,North,0,0.0,0.0,79,0.00,,,0.00,meteohub,2013-02-16 07:43:00,
2013-02-16 02:48:00,14.0,8.8,29.32,North,0,0.0,0.0,79,0.00,,,0.00,meteohub,2013-02-16 07:48:00,
2013-02-16 02:53:00,14.0,8.8,29.32,North,0,0.0,0.0,79,0.00,,,0.00,meteohub,2013-02-16 07:53:00,
2013-02-16 02:58:00,13.8,8.6,29.32,North,0,0.0,0.0,79,0.00,,,0.00,meteohub,2013-02-16 07:58:00,
2013-02-16 03:03:00,13.8,8.6,29.32,North,0,0.0,0.0,79,0.00,,,0.00,meteohub,2013-02-16 08:03:00,
2013-02-16 03:08:00,13.8,8.6,29.32,North,0,0.0,0.0,79,0.00,,,0.00,meteohub,2013-02-16 08:08:00,
2013-02-16 03:13:00,13.8,8.6,29.32,North,0,0.0,0.0,79,0.00,,,0.00,meteohub,2013-02-16 08:13:00,
2013-02-16 03:18:00,13.8,8.8,29.32,North,0,1.0,0.0,80,0.00,,,0.00,meteohub,2013-02-16 08:18:00,
2013-02-16 03:23:00,13.8,8.8,29.32,North,0,0.0,1.0,80,0.00,,,0.00,meteohub,2013-02-16 08:23:00,
2013-02-16 03:28:00,13.8,8.8,29.32,North,0,0.0,1.0,80,0.00,,,0.00,meteohub,2013-02-16 08:28:00,
2013-02-16 03:33:00,13.8,8.8,29.31,North,0,0.0,1.0,80,0.00,,,0.00,meteohub,2013-02-16 08:33:00,
2013-02-16 03:38:00,13.8,8.8,29.31,North,0,0.0,0.0,80,0.00,,,0.00,meteohub,2013-02-16 08:38:00,
2013-02-16 03:43:00,13.8,8.8,29.31,North,0,0.0,0.0,80,0.00,,,0.00,meteohub,2013-02-16 08:43:00,
2013-02-16 03:49:00,13.6,9.0,29.31,North,0,0.0,2.0,81,0.00,,,0.00,meteohub,2013-02-16 08:49:00,
2013-02-16 03:54:00,13.6,9.0,29.31,North,0,0.0,2.0,81,0.00,,,0.00,meteohub,2013-02-16 08:54:00,
2013-02-16 03:59:00,13.5,8.8,29.31,North,0,0.0,2.0,81,0.00,,,0.00,meteohub,2013-02-16 08:59:00,
2013-02-16 04:04:00,13.5,8.8,29.31,North,0,0.0,2.0,81,0.00,,,0.00,meteohub,2013-02-16 09:04:00,
2013-02-16 04:09:00,13.3,8.6,29.31,North,0,0.0,2.0,81,0.00,,,0.00,meteohub,2013-02-16 09:09:00,
2013-02-16 04:14:00,13.3,8.6,29.31,North,0,0.0,2.0,81,0.00,,,0.00,meteohub,2013-02-16 09:14:00,
2013-02-16 04:19:00,13.3,8.6,29.31,North,0,0.0,0.0,81,0.00,,,0.00,meteohub,2013-02-16 09:19:00,
2013-02-16 04:24:00,13.1,8.4,29.31,North,0,0.0,2.0,81,0.00,,,0.00,meteohub,2013-02-16 09:24:00,
2013-02-16 04:29:00,12.9,8.2,29.30,North,0,0.0,2.0,81,0.00,,,0.00,meteohub,2013-02-16 09:29:00,
2013-02-16 04:34:00,12.7,8.2,29.30,North,0,0.0,2.0,82,0.00,,,0.00,meteohub,2013-02-16 09:34:00,
2013-02-16 04:39:00,12.6,8.1,29.30,North,0,0.0,0.0,82,0.00,,,0.00,meteohub,2013-02-16 09:39:00,
2013-02-16 04:44:00,12.6,8.1,29.30,North,0,0.0,0.0,82,0.00,,,0.00,meteohub,2013-02-16 09:44:00,
2013-02-16 04:49:00,12.4,7.9,29.29,North,0,0.0,0.0,82,0.00,,,0.00,meteohub,2013-02-16 09:49:00,
2013-02-16 04:54:00,12.2,7.7,29.29,North,0,0.0,0.0,82,0.00,,,0.00,meteohub,2013-02-16 09:54:00,
2013-02-16 04:59:00,12.0,7.5,29.29,North,0,0.0,0.0,82,0.00,,,0.00,meteohub,2013-02-16 09:59:00,
2013-02-16 05:04:00,11.8,7.3,29.29,North,0,0.0,0.0,82,0.00,,,0.00,meteohub,2013-02-16 10:04:00,
2013-02-16 05:09:00,11.8,7.3,29.29,North,0,0.0,0.0,82,0.00,,,0.00,meteohub,2013-02-16 10:09:00,
2013-02-16 05:14:00,11.7,7.2,29.29,North,0,0.0,0.0,82,0.00,,,0.00,meteohub,2013-02-16 10:14:00,
2013-02-16 05:19:00,11.7,7.2,29.29,North,0,0.0,0.0,82,0.00,,,0.00,meteohub,2013-02-16 10:19:00,
2013-02-16 05:24:00,11.7,7.2,29.29,North,0,0.0,0.0,82,0.00,,,0.00,meteohub,2013-02-16 10:24:00,
2013-02-16 05:29:00,11.7,7.2,29.30,North,0,0.0,0.0,82,0.00,,,0.00,meteohub,2013-02-16 10:29:00,
2013-02-16 05:34:00,11.7,7.2,29.30,North,0,0.0,0.0,82,0.00,,,0.00,meteohub,2013-02-16 10:34:00,
2013-02-16 05:39:00,11.7,7.2,29.30,North,0,0.0,0.0,82,0.00,,,0.00,meteohub,2013-02-16 10:39:00,
2013-02-16 05:44:00,11.7,7.2,29.30,North,0,0.0,0.0,82,0.00,,,0.00,meteohub,2013-02-16 10:44:00,
2013-02-16 05:49:00,11.7,7.2,29.29,North,0,0.0,0.0,82,0.00,,,0.00,meteohub,2013-02-16 10:49:00,
2013-02-16 05:54:00,11.8,7.3,29.29,North,0,0.0,0.0,82,0.00,,,0.00,meteohub,2013-02-16 10:54:00,
2013-02-16 05:59:00,11.8,7.7,29.29,North,0,0.0,0.0,83,0.00,,,0.00,meteohub,2013-02-16 10:59:00,
2013-02-16 06:04:00,11.8,7.7,29.29,North,0,0.0,0.0,83,0.00,,,0.00,meteohub,2013-02-16 11:04:00,
2013-02-16 06:09:00,11.8,7.7,29.29,North,0,0.0,0.0,83,0.00,,,0.00,meteohub,2013-02-16 11:09:00,
2013-02-16 06:14:00,11.8,7.7,29.29,North,0,0.0,0.0,83,0.00,,,0.00,meteohub,2013-02-16 11:14:00,
2013-02-16 06:20:00,11.8,7.7,29.29,North,0,0.0,0.0,83,0.00,,,0.00,meteohub,2013-02-16 11:20:00,
2013-02-16 06:25:00,11.8,7.7,29.29,North,0,0.0,0.0,83,0.00,,,0.00,meteohub,2013-02-16 11:25:00,
2013-02-16 06:30:00,11.8,7.7,29.29,North,0,0.0,0.0,83,0.00,,,0.00,meteohub,2013-02-16 11:30:00,
2013-02-16 06:35:00,11.8,7.7,29.29,North,0,0.0,0.0,83,0.00,,,0.00,meteohub,2013-02-16 11:35:00,
2013-02-16 06:40:00,11.8,7.7,29.29,North,0,0.0,0.0,83,0.00,,,0.00,meteohub,2013-02-16 11:40:00,
2013-02-16 06:45:00,11.8,7.7,29.29,North,0,0.0,0.0,83,0.00,,,0.00,meteohub,2013-02-16 11:45:00,
2013-02-16 06:50:00,11.8,7.7,29.31,North,0,0.0,0.0,83,0.00,,,0.00,meteohub,2013-02-16 11:50:00,
2013-02-16 06:55:00,11.8,7.7,29.31,North,0,0.0,0.0,83,0.00,,,0.00,meteohub,2013-02-16 11:55:00,
2013-02-16 07:00:00,11.8,7.7,29.31,North,0,0.0,0.0,83,0.00,,,0.00,meteohub,2013-02-16 12:00:00,
2013-02-16 07:05:00,11.8,7.7,29.31,North,0,0.0,0.0,83,0.00,,,0.00,meteohub,2013-02-16 12:05:00,
2013-02-16 07:10:00,11.8,7.7,29.31,North,0,0.0,2.0,83,0.00,,,0.00,meteohub,2013-02-16 12:10:00,
2013-02-16 07:15:00,11.8,7.7,29.31,North,0,0.0,2.0,83,0.00,,,0.00,meteohub,2013-02-16 12:15:00,
2013-02-16 07:20:00,11.8,7.9,29.31,North,0,0.0,3.0,84,0.00,,,0.00,meteohub,2013-02-16 12:20:00,
2013-02-16 07:25:00,12.0,8.1,29.31,North,0,0.0,3.0,84,0.00,,,0.00,meteohub,2013-02-16 12:25:00,
2013-02-16 07:30:00,12.0,8.1,29.31,North,0,2.0,3.0,84,0.00,,,0.00,meteohub,2013-02-16 12:30:00,
2013-02-16 07:35:00,12.0,8.1,29.31,North,0,2.0,2.0,84,0.00,,,0.00,meteohub,2013-02-16 12:35:00,
2013-02-16 07:40:00,11.8,7.9,29.31,North,0,0.0,2.0,84,0.00,,,0.00,meteohub,2013-02-16 12:40:00,
2013-02-16 07:45:00,11.8,7.9,29.31,North,0,2.0,2.0,84,0.00,,,0.00,meteohub,2013-02-16 12:45:00,
2013-02-16 07:50:00,11.8,7.9,29.31,North,0,2.0,2.0,84,0.00,,,0.00,meteohub,2013-02-16 12:50:00,
2013-02-16 07:55:00,11.8,7.9,29.31,North,0,1.0,2.0,84,0.00,,,0.00,meteohub,2013-02-16 12:55:00,
2013-02-16 08:00:00,11.8,7.9,29.31,North,0,0.0,2.0,84,0.00,,,0.00,meteohub,2013-02-16 13:00:00,
2013-02-16 08:05:00,11.8,7.9,29.31,North,0,0.0,2.0,84,0.00,,,0.00,meteohub,2013-02-16 13:05:00,
2013-02-16 08:10:00,11.8,7.9,29.31,North,0,0.0,2.0,84,0.00,,,0.00,meteohub,2013-02-16 13:10:00,
2013-02-16 08:15:00,11.8,7.9,29.31,North,0,0.0,2.0,84,0.00,,,0.00,meteohub,2013-02-16 13:15:00,
2013-02-16 08:20:00,11.8,7.9,29.31,North,0,2.0,2.0,84,0.00,,,0.00,meteohub,2013-02-16 13:20:00,
2013-02-16 08:25:00,11.8,7.9,29.31,North,0,0.0,1.0,84,0.00,,,0.00,meteohub,2013-02-16 13:25:00,
2013-02-16 08:30:00,11.8,7.9,29.31,North,0,0.0,2.0,84,0.00,,,0.00,meteohub,2013-02-16 13:30:00,
2013-02-16 08:35:00,11.8,7.9,29.31,North,0,0.0,2.0,84,0.00,,,0.00,meteohub,2013-02-16 13:35:00,
2013-02-16 08:40:00,11.8,7.9,29.31,North,0,0.0,1.0,84,0.00,,,0.00,meteohub,2013-02-16 13:40:00,
2013-02-16 08:45:00,11.8,7.9,29.31,North,0,0.0,0.0,84,0.00,,,0.00,meteohub,2013-02-16 13:45:00,
2013-02-16 08:50:00,12.0,8.1,29.31,North,0,0.0,1.0,84,0.00,,,0.00,meteohub,2013-02-16 13:50:00,
2013-02-16 08:55:00,12.4,8.4,29.31,North,0,0.0,1.0,84,0.00,,,0.00,meteohub,2013-02-16 13:55:00,
2013-02-16 09:00:00,12.6,8.6,29.31,North,0,0.0,0.0,84,0.00,,,0.00,meteohub,2013-02-16 14:00:00,
2013-02-16 09:05:00,12.6,8.6,29.31,North,0,0.0,0.0,84,0.00,,,0.00,meteohub,2013-02-16 14:05:00,
2013-02-16 09:10:00,12.6,8.6,29.31,North,0,3.0,0.0,84,0.00,,,0.00,meteohub,2013-02-16 14:10:00,
2013-02-16 09:15:00,12.4,8.4,29.31,North,0,0.0,2.0,84,0.00,,,0.00,meteohub,2013-02-16 14:15:00,
2013-02-16 09:20:00,12.4,8.4,29.31,North,0,0.0,3.0,84,0.00,,,0.00,meteohub,2013-02-16 14:20:00,
2013-02-16 09:25:00,12.6,8.6,29.31,North,0,0.0,3.0,84,0.00,,,0.00,meteohub,2013-02-16 14:25:00,
2013-02-16 09:30:00,12.7,8.8,29.31,North,0,0.0,2.0,84,0.00,,,0.00,meteohub,2013-02-16 14:30:00,
2013-02-16 09:35:00,13.3,9.3,29.31,North,0,0.0,0.0,84,0.00,,,0.00,meteohub,2013-02-16 14:35:00,
2013-02-16 09:40:00,13.6,9.7,29.31,North,0,0.0,0.0,84,0.00,,,0.00,meteohub,2013-02-16 14:40:00,
2013-02-16 09:45:00,14.0,10.0,29.31,North,0,0.0,0.0,84,0.00,,,0.00,meteohub,2013-02-16 14:45:00,
2013-02-16 09:50:00,14.7,10.8,29.32,North,0,0.0,0.0,84,0.00,,,0.00,meteohub,2013-02-16 14:50:00,
2013-02-16 09:55:00,14.7,10.8,29.32,North,0,2.0,0.0,84,0.00,,,0.00,meteohub,2013-02-16 14:55:00,
2013-02-16 10:00:00,15.1,11.1,29.32,North,0,2.0,0.0,84,0.00,,,0.00,meteohub,2013-02-16 15:00:00,
2013-02-16 10:06:00,14.9,10.9,29.32,North,0,0.0,4.0,84,0.00,,,0.00,meteohub,2013-02-16 15:06:00,
2013-02-16 10:11:00,15.4,11.5,29.31,North,0,0.0,4.0,84,0.00,,,0.00,meteohub,2013-02-16 15:11:00,
2013-02-16 10:16:00,15.6,11.7,29.31,North,0,2.0,3.0,84,0.00,,,0.00,meteohub,2013-02-16 15:16:00,
2013-02-16 10:21:00,15.6,11.7,29.31,North,0,3.0,3.0,84,0.00,,,0.00,meteohub,2013-02-16 15:21:00,
2013-02-16 10:26:00,16.0,12.0,29.31,North,0,2.0,3.0,84,0.00,,,0.00,meteohub,2013-02-16 15:26:00,
2013-02-16 10:31:00,16.2,11.8,29.31,North,0,2.0,3.0,83,0.00,,,0.00,meteohub,2013-02-16 15:31:00,
2013-02-16 10:36:00,16.5,12.0,29.31,North,0,4.0,4.0,82,0.00,,,0.00,meteohub,2013-02-16 15:36:00,
2013-02-16 10:41:00,16.9,12.0,29.31,North,0,0.0,3.0,81,0.00,,,0.00,meteohub,2013-02-16 15:41:00,
2013-02-16 10:46:00,17.2,12.4,29.31,North,0,2.0,4.0,81,0.00,,,0.00,meteohub,2013-02-16 15:46:00,
2013-02-16 10:51:00,17.6,12.6,29.31,North,0,1.0,4.0,80,0.00,,,0.00,meteohub,2013-02-16 15:51:00,
2013-02-16 10:56:00,17.6,12.2,29.31,North,0,2.0,4.0,79,0.00,,,0.00,meteohub,2013-02-16 15:56:00,
2013-02-16 11:01:00,18.0,12.6,29.31,North,0,1.0,4.0,79,0.00,,,0.00,meteohub,2013-02-16 16:01:00,
2013-02-16 11:06:00,17.8,12.4,29.31,North,0,2.0,4.0,79,0.00,,,0.00,meteohub,2013-02-16 16:06:00,
2013-02-16 11:11:00,17.6,12.2,29.31,North,0,3.0,4.0,79,0.00,,,0.00,meteohub,2013-02-16 16:11:00,
2013-02-16 11:16:00,17.2,11.8,29.31,North,0,3.0,3.0,79,0.00,,,0.00,meteohub,2013-02-16 16:16:00,
2013-02-16 11:21:00,17.4,11.7,29.31,North,0,3.0,3.0,78,0.00,,,0.00,meteohub,2013-02-16 16:21:00,
2013-02-16 11:26:00,18.0,12.2,29.31,North,0,2.0,3.0,78,0.00,,,0.00,meteohub,2013-02-16 16:26:00,
2013-02-16 11:31:00,18.3,12.6,29.31,North,0,0.0,3.0,78,0.00,,,0.00,meteohub,2013-02-16 16:31:00,
2013-02-16 11:36:00,18.9,12.9,29.31,North,0,3.0,4.0,77,0.00,,,0.00,meteohub,2013-02-16 16:36:00,
2013-02-16 11:41:00,19.2,12.9,29.31,North,0,2.0,4.0,76,0.00,,,0.00,meteohub,2013-02-16 16:41:00,
2013-02-16 11:46:00,19.4,12.7,29.31,North,0,2.0,3.0,75,0.00,,,0.00,meteohub,2013-02-16 16:46:00,
2013-02-16 11:51:00,19.8,12.7,29.30,North,0,3.0,3.0,74,0.00,,,0.00,meteohub,2013-02-16 16:51:00,
2013-02-16 11:56:00,20.1,12.6,29.30,North,0,3.0,4.0,72,0.00,,,0.00,meteohub,2013-02-16 16:56:00,
2013-02-16 12:01:00,20.1,12.6,29.30,North,0,2.0,4.0,72,0.00,,,0.00,meteohub,2013-02-16 17:01:00,
2013-02-16 12:06:00,20.5,12.9,29.30,North,0,2.0,4.0,72,0.00,,,0.00,meteohub,2013-02-16 17:06:00,
2013-02-16 12:11:00,20.3,12.7,29.30,North,0,2.0,5.0,72,0.00,,,0.00,meteohub,2013-02-16 17:11:00,
2013-02-16 12:16:00,19.8,11.8,29.30,North,0,3.0,5.0,71,0.00,,,0.00,meteohub,2013-02-16 17:16:00,
2013-02-16 12:21:00,20.1,11.8,29.30,North,0,3.0,3.0,70,0.00,,,0.00,meteohub,2013-02-16 17:21:00,
2013-02-16 12:26:00,20.5,12.2,29.30,North,0,4.0,4.0,70,0.00,,,0.00,meteohub,2013-02-16 17:26:00,
2013-02-16 12:31:00,20.7,12.0,29.31,North,0,2.0,4.0,69,0.00,,,0.00,meteohub,2013-02-16 17:31:00,
2013-02-16 12:36:00,20.7,11.5,29.31,North,0,4.0,4.0,67,0.00,,,0.00,meteohub,2013-02-16 17:36:00,
2013-02-16 12:41:00,20.5,11.3,29.31,North,0,5.0,5.0,67,0.00,,,0.00,meteohub,2013-02-16 17:41:00,
2013-02-16 12:46:00,20.7,11.1,29.31,North,0,0.0,5.0,66,0.00,,,0.00,meteohub,2013-02-16 17:46:00,
2013-02-16 12:51:00,20.5,10.9,29.29,North,0,6.0,6.0,66,0.00,,,0.00,meteohub,2013-02-16 17:51:00,
2013-02-16 12:56:00,20.7,10.8,29.29,North,0,4.0,6.0,65,0.00,,,0.00,meteohub,2013-02-16 17:56:00,
2013-02-16 13:01:00,21.2,11.3,29.29,North,0,4.0,6.0,65,0.00,,,0.00,meteohub,2013-02-16 18:01:00,
2013-02-16 13:06:00,21.7,11.5,29.29,North,0,3.0,4.0,64,0.00,,,0.00,meteohub,2013-02-16 18:06:00,
2013-02-16 13:12:00,22.3,11.7,29.29,North,0,7.0,7.0,63,0.00,,,0.00,meteohub,2013-02-16 18:12:00,
2013-02-16 13:17:00,22.5,11.5,29.29,North,0,5.0,7.0,62,0.00,,,0.00,meteohub,2013-02-16 18:17:00,
2013-02-16 13:22:00,22.6,11.7,29.29,North,0,4.0,7.0,62,0.00,,,0.00,meteohub,2013-02-16 18:22:00,
2013-02-16 13:27:00,22.1,10.8,29.29,North,0,4.0,7.0,61,0.00,,,0.00,meteohub,2013-02-16 18:27:00,
2013-02-16 13:32:00,21.4,10.0,29.29,North,0,4.0,5.0,61,0.00,,,0.00,meteohub,2013-02-16 18:32:00,
2013-02-16 13:37:00,20.5,9.9,29.29,North,0,4.0,4.0,63,0.00,,,0.00,meteohub,2013-02-16 18:37:00,
2013-02-16 13:42:00,19.8,9.9,29.29,North,0,3.0,9.0,65,0.00,,,0.00,meteohub,2013-02-16 18:42:00,
2013-02-16 13:47:00,19.4,9.9,29.29,North,0,8.0,9.0,66,0.00,,,0.00,meteohub,2013-02-16 18:47:00,
2013-02-16 13:52:00,18.9,9.7,29.29,North,0,7.0,8.0,67,0.00,,,0.00,meteohub,2013-02-16 18:52:00,
2013-02-16 13:57:00,18.3,9.5,29.29,North,0,8.0,8.0,68,0.00,,,0.00,meteohub,2013-02-16 18:57:00,
2013-02-16 14:02:00,18.0,9.1,29.29,North,0,7.0,11.0,68,0.00,,,0.00,meteohub,2013-02-16 19:02:00,
2013-02-16 14:07:00,17.8,9.3,29.29,North,0,14.0,14.0,69,0.00,,,0.00,meteohub,2013-02-16 19:07:00,
2013-02-16 14:12:00,17.2,8.8,29.29,North,0,5.0,14.0,69,0.00,,,0.00,meteohub,2013-02-16 19:12:00,
2013-02-16 14:17:00,17.1,9.0,29.29,North,0,5.0,14.0,70,0.00,,,0.00,meteohub,2013-02-16 19:17:00,
2013-02-16 14:22:00,16.9,8.8,29.29,North,0,6.0,14.0,70,0.00,,,0.00,meteohub,2013-02-16 19:22:00,
2013-02-16 14:27:00,17.2,9.1,29.29,North,0,5.0,13.0,70,0.00,,,0.00,meteohub,2013-02-16 19:27:00,
2013-02-16 14:32:00,17.4,9.0,29.30,North,0,4.0,9.0,69,0.00,,,0.00,meteohub,2013-02-16 19:32:00,
2013-02-16 14:37:00,17.4,9.0,29.30,North,0,9.0,9.0,69,0.00,,,0.00,meteohub,2013-02-16 19:37:00,
2013-02-16 14:42:00,17.2,8.8,29.30,North,0,5.0,9.0,69,0.00,,,0.00,meteohub,2013-02-16 19:42:00,
2013-02-16 14:47:00,17.4,9.0,29.30,North,0,10.0,10.0,69,0.00,,,0.00,meteohub,2013-02-16 19:47:00,
2013-02-16 14:52:00,17.2,8.8,29.30,North,0,4.0,12.0,69,0.00,,,0.00,meteohub,2013-02-16 19:52:00,
2013-02-16 14:57:00,17.2,8.4,29.30,North,0,8.0,12.0,68,0.00,,,0.00,meteohub,2013-02-16 19:57:00,
2013-02-16 15:02:00,17.1,8.2,29.30,North,0,5.0,12.0,68,0.00,,,0.00,meteohub,2013-02-16 20:02:00,
2013-02-16 15:07:00,17.2,8.8,29.30,North,0,8.0,8.0,69,0.00,,,0.00,meteohub,2013-02-16 20:07:00,
2013-02-16 15:12:00,16.9,8.2,29.30,North,0,5.0,10.0,68,0.00,,,0.00,meteohub,2013-02-16 20:12:00,
2013-02-16 15:17:00,17.1,8.6,29.30,North,0,3.0,10.0,69,0.00,,,0.00,meteohub,2013-02-16 20:17:00,
2013-02-16 15:22:00,17.1,8.6,29.30,North,0,6.0,10.0,69,0.00,,,0.00,meteohub,2013-02-16 20:22:00,
2013-02-16 15:27:00,16.9,8.8,29.30,North,0,8.0,9.0,70,0.00,,,0.00,meteohub,2013-02-16 20:27:00,
2013-02-16 15:32:00,16.5,8.4,29.30,North,0,12.0,12.0,70,0.00,,,0.00,meteohub,2013-02-16 20:32:00,
2013-02-16 15:37:00,16.3,8.2,29.30,North,0,7.0,12.0,70,0.00,,,0.00,meteohub,2013-02-16 20:37:00,
2013-02-16 15:42:00,16.3,8.2,29.30,North,0,9.0,13.0,70,0.00,,,0.00,meteohub,2013-02-16 20:42:00,
2013-02-16 15:47:00,16.2,8.1,29.30,North,0,7.0,13.0,70,0.00,,,0.00,meteohub,2013-02-16 20:47:00,
2013-02-16 15:52:00,16.2,8.1,29.31,North,0,12.0,16.0,70,0.00,,,0.00,meteohub,2013-02-16 20:52:00,
2013-02-16 15:57:00,16.2,8.1,29.31,North,0,8.0,16.0,70,0.00,,,0.00,meteohub,2013-02-16 20:57:00,
2013-02-16 16:02:00,16.0,7.9,29.31,North,0,5.0,16.0,70,0.00,,,0.00,meteohub,2013-02-16 21:02:00,
2013-02-16 16:07:00,16.0,7.9,29.31,North,0,2.0,10.0,70,0.00,,,0.00,meteohub,2013-02-16 21:07:00,
2013-02-16 16:12:00,16.3,8.6,29.31,North,0,3.0,10.0,71,0.00,,,0.00,meteohub,2013-02-16 21:12:00,
2013-02-16 16:17:00,16.3,8.6,29.31,North,0,3.0,9.0,71,0.00,,,0.00,meteohub,2013-02-16 21:17:00,
2013-02-16 16:22:00,16.3,8.2,29.31,North,0,4.0,4.0,70,0.00,,,0.00,meteohub,2013-02-16 21:22:00,
2013-02-16 16:27:00,16.7,8.6,29.31,North,0,3.0,4.0,70,0.00,,,0.00,meteohub,2013-02-16 21:27:00,
2013-02-16 16:32:00,16.7,8.6,29.31,North,0,2.0,4.0,70,0.00,,,0.00,meteohub,2013-02-16 21:32:00,
2013-02-16 16:37:00,16.7,8.6,29.31,North,0,2.0,4.0,70,0.00,,,0.00,meteohub,2013-02-16 21:37:00,
2013-02-16 16:42:00,17.1,8.6,29.31,North,0,2.0,4.0,69,0.00,,,0.00,meteohub,2013-02-16 21:42:00,
2013-02-16 16:47:00,17.2,8.4,29.31,North,0,2.0,4.0,68,0.00,,,0.00,meteohub,2013-02-16 21:47:00,
2013-02-16 16:52:00,17.2,8.4,29.32,North,0,0.0,4.0,68,0.00,,,0.00,meteohub,2013-02-16 21:52:00,
2013-02-16 16:57:00,17.1,8.2,29.32,North,0,2.0,3.0,68,0.00,,,0.00,meteohub,2013-02-16 21:57:00,
2013-02-16 17:02:00,16.9,7.9,29.32,North,0,3.0,3.0,67,0.00,,,0.00,meteohub,2013-02-16 22:02:00,
2013-02-16 17:07:00,16.9,7.9,29.32,North,0,2.0,4.0,67,0.00,,,0.00,meteohub,2013-02-16 22:07:00,
2013-02-16 17:12:00,16.5,7.5,29.33,North,0,2.0,4.0,67,0.00,,,0.00,meteohub,2013-02-16 22:12:00,
2013-02-16 17:17:00,16.5,7.5,29.33,North,0,0.0,4.0,67,0.00,,,0.00,meteohub,2013-02-16 22:17:00,
2013-02-16 17:22:00,16.3,7.3,29.33,North,0,2.0,3.0,67,0.00,,,0.00,meteohub,2013-02-16 22:22:00,
2013-02-16 17:27:00,16.0,7.0,29.33,North,0,0.0,3.0,67,0.00,,,0.00,meteohub,2013-02-16 22:27:00,
2013-02-16 17:32:00,15.8,6.8,29.34,North,0,0.0,2.0,67,0.00,,,0.00,meteohub,2013-02-16 22:32:00,
2013-02-16 17:37:00,15.4,6.4,29.34,North,0,2.0,2.0,67,0.00,,,0.00,meteohub,2013-02-16 22:37:00,
2013-02-16 17:43:00,14.9,5.9,29.34,North,0,0.0,3.0,67,0.00,,,0.00,meteohub,2013-02-16 22:43:00,
2013-02-16 17:48:00,14.2,5.0,29.34,North,0,0.0,3.0,66,0.00,,,0.00,meteohub,2013-02-16 22:48:00,
2013-02-16 17:53:00,14.0,5.0,29.34,North,0,0.0,3.0,67,0.00,,,0.00,meteohub,2013-02-16 22:53:00,
2013-02-16 17:58:00,13.8,4.8,29.34,North,0,0.0,2.0,67,0.00,,,0.00,meteohub,2013-02-16 22:58:00,
2013-02-16 18:03:00,13.5,4.6,29.34,North,0,0.0,3.0,67,0.00,,,0.00,meteohub,2013-02-16 23:03:00,
2013-02-16 18:08:00,13.3,4.5,29.34,North,0,4.0,4.0,67,0.00,,,0.00,meteohub,2013-02-16 23:08:00,
2013-02-16 18:13:00,12.9,4.3,29.35,North,0,0.0,5.0,68,0.00,,,0.00,meteohub,2013-02-16 23:13:00,
2013-02-16 18:18:00,12.6,3.7,29.35,North,0,2.0,5.0,67,0.00,,,0.00,meteohub,2013-02-16 23:18:00,
2013-02-16 18:23:00,12.2,3.4,29.35,North,0,0.0,5.0,67,0.00,,,0.00,meteohub,2013-02-16 23:23:00,
2013-02-16 18:28:00,11.8,3.4,29.35,North,0,0.0,5.0,68,0.00,,,0.00,meteohub,2013-02-16 23:28:00,
2013-02-16 18:33:00,11.3,2.8,29.36,North,0,0.0,5.0,68,0.00,,,0.00,meteohub,2013-02-16 23:33:00,
2013-02-16 18:38:00,10.8,2.3,29.36,North,0,0.0,0.0,68,0.00,,,0.00,meteohub,2013-02-16 23:38:00,
2013-02-16 18:43:00,10.4,1.9,29.36,North,0,0.0,0.0,68,0.00,,,0.00,meteohub,2013-02-16 23:43:00,
2013-02-16 18:48:00,10.2,1.8,29.36,North,0,0.0,2.0,68,0.00,,,0.00,meteohub,2013-02-16 23:48:00,
2013-02-16 18:53:00,9.9,1.8,29.37,North,0,0.0,2.0,69,0.00,,,0.00,meteohub,2013-02-16 23:53:00,
2013-02-16 18:58:00,9.7,1.6,29.37,North,0,2.0,0.0,69,0.00,,,0.00,meteohub,2013-02-16 23:58:00,
2013-02-16 19:03:00,9.7,1.6,29.37,North,0,0.0,2.0,69,0.00,,,0.00,meteohub,2013-02-17 00:03:00,
2013-02-16 19:08:00,9.7,1.9,29.37,North,0,0.0,2.0,70,0.00,,,0.00,meteohub,2013-02-17 00:08:00,
2013-02-16 19:13:00,9.7,1.9,29.37,North,0,0.0,2.0,70,0.00,,,0.00,meteohub,2013-02-17 00:13:00,
2013-02-16 19:18:00,9.7,1.9,29.37,North,0,0.0,2.0,70,0.00,,,0.00,meteohub,2013-02-17 00:18:00,
2013-02-16 19:23:00,9.5,1.8,29.37,North,0,0.0,0.0,70,0.00,,,0.00,meteohub,2013-02-17 00:23:00,
2013-02-16 19:28:00,9.1,1.4,29.37,North,0,0.0,0.0,70,0.00,,,0.00,meteohub,2013-02-17 00:28:00,
2013-02-16 19:33:00,9.0,1.2,29.38,North,0,0.0,0.0,70,0.00,,,0.00,meteohub,2013-02-17 00:33:00,
2013-02-16 19:38:00,8.6,1.2,29.38,North,0,0.0,0.0,71,0.00,,,0.00,meteohub,2013-02-17 00:38:00,
2013-02-16 19:43:00,8.2,0.9,29.38,North,0,0.0,0.0,71,0.00,,,0.00,meteohub,2013-02-17 00:43:00,
2013-02-16 19:48:00,7.9,0.5,29.38,North,0,0.0,0.0,71,0.00,,,0.00,meteohub,2013-02-17 00:48:00,
2013-02-16 19:53:00,7.5,0.1,29.38,North,0,0.0,0.0,71,0.00,,,0.00,meteohub,2013-02-17 00:53:00,
2013-02-16 19:58:00,7.3,0.1,29.38,North,0,0.0,0.0,72,0.00,,,0.00,meteohub,2013-02-17 00:58:00,
2013-02-16 20:03:00,7.2,0.0,29.38,North,0,0.0,0.0,72,0.00,,,0.00,meteohub,2013-02-17 01:03:00,
2013-02-16 20:08:00,6.8,-0.2,29.38,North,0,0.0,0.0,72,0.00,,,0.00,meteohub,2013-02-17 01:08:00,
2013-02-16 20:13:00,6.4,-0.6,29.37,North,0,0.0,2.0,72,0.00,,,0.00,meteohub,2013-02-17 01:13:00,
2013-02-16 20:18:00,6.4,-0.4,29.37,North,0,0.0,2.0,73,0.00,,,0.00,meteohub,2013-02-17 01:18:00,
2013-02-16 20:23:00,6.4,-0.4,29.37,North,0,0.0,2.0,73,0.00,,,0.00,meteohub,2013-02-17 01:23:00,
2013-02-16 20:28:00,6.1,-0.9,29.38,North,0,0.0,0.0,72,0.00,,,0.00,meteohub,2013-02-17 01:28:00,
2013-02-16 20:33:00,6.1,-0.9,29.38,North,0,0.0,0.0,72,0.00,,,0.00,meteohub,2013-02-17 01:33:00,
2013-02-16 20:39:00,5.9,-0.9,29.38,North,0,0.0,0.0,73,0.00,,,0.00,meteohub,2013-02-17 01:39:00,
2013-02-16 20:44:00,5.7,-1.1,29.38,North,0,0.0,0.0,73,0.00,,,0.00,meteohub,2013-02-17 01:44:00,
2013-02-16 20:49:00,5.5,-1.3,29.38,North,0,0.0,0.0,73,0.00,,,0.00,meteohub,2013-02-17 01:49:00,
2013-02-16 20:54:00,5.5,-1.3,29.38,North,0,0.0,0.0,73,0.00,,,0.00,meteohub,2013-02-17 01:54:00,
2013-02-16 20:59:00,5.2,-1.7,29.38,North,0,0.0,0.0,73,0.00,,,0.00,meteohub,2013-02-17 01:59:00,
2013-02-16 21:04:00,4.8,-1.8,29.38,North,0,0.0,0.0,73,0.00,,,0.00,meteohub,2013-02-17 02:04:00,
2013-02-16 21:09:00,4.3,-2.4,29.38,North,0,0.0,0.0,73,0.00,,,0.00,meteohub,2013-02-17 02:09:00,
2013-02-16 21:14:00,4.1,-2.6,29.38,North,0,0.0,0.0,73,0.00,,,0.00,meteohub,2013-02-17 02:14:00,
2013-02-16 21:19:00,3.9,-2.6,29.38,North,0,0.0,0.0,74,0.00,,,0.00,meteohub,2013-02-17 02:19:00,
2013-02-16 21:24:00,3.9,-2.6,29.38,North,0,0.0,0.0,74,0.00,,,0.00,meteohub,2013-02-17 02:24:00,
2013-02-16 21:29:00,3.9,-2.2,29.38,North,0,0.0,0.0,75,0.00,,,0.00,meteohub,2013-02-17 02:29:00,
2013-02-16 21:34:00,3.9,-2.2,29.38,North,0,0.0,0.0,75,0.00,,,0.00,meteohub,2013-02-17 02:34:00,
2013-02-16 21:39:00,4.1,-2.0,29.38,North,0,0.0,0.0,75,0.00,,,0.00,meteohub,2013-02-17 02:39:00,
2013-02-16 21:44:00,4.1,-2.0,29.38,North,0,0.0,0.0,75,0.00,,,0.00,meteohub,2013-02-17 02:44:00,
2013-02-16 21:49:00,4.5,-1.5,29.39,North,0,0.0,0.0,76,0.00,,,0.00,meteohub,2013-02-17 02:49:00,
2013-02-16 21:54:00,4.6,-1.3,29.39,North,0,0.0,0.0,76,0.00,,,0.00,meteohub,2013-02-17 02:54:00,
2013-02-16 21:59:00,4.6,-1.3,29.39,North,0,0.0,0.0,76,0.00,,,0.00,meteohub,2013-02-17 02:59:00,
2013-02-16 22:04:00,4.6,-1.3,29.39,North,0,0.0,0.0,76,0.00,,,0.00,meteohub,2013-02-17 03:04:00,
2013-02-16 22:09:00,3.6,-2.6,29.39,North,0,0.0,0.0,75,0.00,,,0.00,meteohub,2013-02-17 03:09:00,
2013-02-16 22:14:00,2.8,-3.3,29.39,North,0,0.0,0.0,75,0.00,,,0.00,meteohub,2013-02-17 03:14:00,
2013-02-16 22:19:00,2.5,-3.6,29.39,North,0,0.0,0.0,75,0.00,,,0.00,meteohub,2013-02-17 03:19:00,
2013-02-16 22:24:00,2.1,-4.0,29.39,North,0,0.0,0.0,75,0.00,,,0.00,meteohub,2013-02-17 03:24:00,
2013-02-16 22:29:00,1.8,-4.4,29.39,North,0,0.0,0.0,75,0.00,,,0.00,meteohub,2013-02-17 03:29:00,
2013-02-16 22:34:00,1.8,-4.4,29.39,North,0,0.0,0.0,75,0.00,,,0.00,meteohub,2013-02-17 03:34:00,
2013-02-16 22:39:00,1.6,-4.2,29.39,North,0,0.0,0.0,76,0.00,,,0.00,meteohub,2013-02-17 03:39:00,
2013-02-16 22:44:00,1.6,-4.2,29.39,North,0,0.0,0.0,76,0.00,,,0.00,meteohub,2013-02-17 03:44:00,
2013-02-16 22:49:00,1.4,-4.4,29.39,North,0,0.0,0.0,76,0.00,,,0.00,meteohub,2013-02-17 03:49:00,
2013-02-16 22:54:00,1.6,-4.2,29.39,North,0,0.0,0.0,76,0.00,,,0.00,meteohub,2013-02-17 03:54:00,
2013-02-16 22:59:00,1.4,-4.4,29.39,North,0,0.0,0.0,76,0.00,,,0.00,meteohub,2013-02-17 03:59:00,
2013-02-16 23:04:00,1.2,-4.5,29.39,North,0,0.0,0.0,76,0.00,,,0.00,meteohub,2013-02-17 04:04:00,
2013-02-16 23:09:00,1.0,-4.7,29.39,North,0,0.0,0.0,76,0.00,,,0.00,meteohub,2013-02-17 04:09:00,
2013-02-16 23:14:00,0.7,-5.1,29.39,North,0,0.0,0.0,76,0.00,,,0.00,meteohub,2013-02-17 04:14:00,
2013-02-16 23:19:00,0.5,-5.3,29.39,North,0,0.0,0.0,76,0.00,,,0.00,meteohub,2013-02-17 04:19:00,
2013-02-16 23:24:00,0.5,-5.3,29.39,North,0,0.0,0.0,76,0.00,,,0.00,meteohub,2013-02-17 04:24:00,
2013-02-16 23:29:00,0.5,-5.1,29.39,North,0,0.0,0.0,77,0.00,,,0.00,meteohub,2013-02-17 04:29:00,
2013-02-16 23:34:00,0.0,-5.8,29.39,North,0,0.0,0.0,76,0.00,,,0.00,meteohub,2013-02-17 04:34:00,
2013-02-16 23:39:00,-0.4,-5.8,29.39,North,0,0.0,0.0,77,0.00,,,0.00,meteohub,2013-02-17 04:39:00,
2013-02-16 23:44:00,-0.6,-6.0,29.39,North,0,0.0,0.0,77,0.00,,,0.00,meteohub,2013-02-17 04:44:00,
2013-02-16 23:49:00,-0.6,-6.0,29.38,North,0,0.0,0.0,77,0.00,,,0.00,meteohub,2013-02-17 04:49:00,
2013-02-16 23:54:00,-0.6,-6.0,29.38,North,0,0.0,0.0,77,0.00,,,0.00,meteohub,2013-02-17 04:54:00,
2013-02-16 23:59:00,-0.8,-6.2,29.38,North,0,0.0,0.0,77,0.00,,,0.00,meteohub,2013-02-17 04:59:00,